sensor_id;sensor_type;location;lat;lon;timestamp;P1;durP1;ratioP1;P2;durP2;ratioP2
35150;SDS011;55720;51.972;4.624;2023-04-01T00:01:17;53.38;;;14.95;;
35150;SDS011;55720;51.972;4.624;2023-04-01T00:03:43;62.35;;;15.52;;
35150;SDS011;55720;51.972;4.624;2023-04-01T00:06:09;69.75;;;14.30;;
35150;SDS011;55720;51.972;4.624;2023-04-01T00:08:38;80.88;;;13.55;;
35150;SDS011;55720;51.972;4.624;2023-04-01T00:11:04;74.90;;;13.50;;
35150;SDS011;55720;51.972;4.624;2023-04-01T00:13:29;68.72;;;14.57;;
35150;SDS011;55720;51.972;4.624;2023-04-01T00:15:55;69.63;;;14.60;;
35150;SDS011;55720;51.972;4.624;2023-04-01T00:18:21;62.78;;;14.77;;
35150;SDS011;55720;51.972;4.624;2023-04-01T00:20:48;43.72;;;10.73;;
35150;SDS011;55720;51.972;4.624;2023-04-01T00:23:14;45.83;;;10.80;;
35150;SDS011;55720;51.972;4.624;2023-04-01T00:25:40;53.85;;;13.18;;
35150;SDS011;55720;51.972;4.624;2023-04-01T00:28:06;46.65;;;12.00;;
35150;SDS011;55720;51.972;4.624;2023-04-01T00:30:32;51.65;;;10.57;;
35150;SDS011;55720;51.972;4.624;2023-04-01T00:32:57;41.00;;;12.27;;
35150;SDS011;55720;51.972;4.624;2023-04-01T00:35:23;47.53;;;12.15;;
35150;SDS011;55720;51.972;4.624;2023-04-01T00:37:48;43.63;;;12.82;;
35150;SDS011;55720;51.972;4.624;2023-04-01T00:40:31;47.08;;;12.20;;
35150;SDS011;55720;51.972;4.624;2023-04-01T00:42:56;47.40;;;13.55;;
35150;SDS011;55720;51.972;4.624;2023-04-01T00:47:53;47.45;;;12.23;;
35150;SDS011;55720;51.972;4.624;2023-04-01T00:50:20;45.58;;;11.60;;
35150;SDS011;55720;51.972;4.624;2023-04-01T00:52:49;34.65;;;8.60;;
35150;SDS011;55720;51.972;4.624;2023-04-01T00:55:15;50.08;;;11.52;;
35150;SDS011;55720;51.972;4.624;2023-04-01T00:57:44;43.78;;;12.93;;
35150;SDS011;55720;51.972;4.624;2023-04-01T01:00:11;52.10;;;13.18;;
35150;SDS011;55720;51.972;4.624;2023-04-01T01:02:38;52.65;;;12.65;;
35150;SDS011;55720;51.972;4.624;2023-04-01T01:05:29;60.60;;;13.77;;
35150;SDS011;55720;51.972;4.624;2023-04-01T01:08:14;49.95;;;13.52;;
35150;SDS011;55720;51.972;4.624;2023-04-01T01:10:45;54.25;;;12.88;;
35150;SDS011;55720;51.972;4.624;2023-04-01T01:18:51;68.78;;;12.57;;
35150;SDS011;55720;51.972;4.624;2023-04-01T01:24:22;59.53;;;11.75;;
35150;SDS011;55720;51.972;4.624;2023-04-01T01:32:15;43.22;;;11.88;;
35150;SDS011;55720;51.972;4.624;2023-04-01T01:37:41;43.85;;;9.15;;
35150;SDS011;55720;51.972;4.624;2023-04-01T01:40:10;44.72;;;11.15;;
35150;SDS011;55720;51.972;4.624;2023-04-01T01:42:37;35.80;;;9.25;;
35150;SDS011;55720;51.972;4.624;2023-04-01T01:45:05;34.22;;;8.70;;
35150;SDS011;55720;51.972;4.624;2023-04-01T01:47:34;36.58;;;7.80;;
35150;SDS011;55720;51.972;4.624;2023-04-01T01:50:00;30.50;;;7.75;;
35150;SDS011;55720;51.972;4.624;2023-04-01T01:52:28;34.35;;;7.65;;
35150;SDS011;55720;51.972;4.624;2023-04-01T01:54:55;29.85;;;6.30;;
35150;SDS011;55720;51.972;4.624;2023-04-01T01:57:23;34.67;;;7.80;;
35150;SDS011;55720;51.972;4.624;2023-04-01T02:00:08;25.17;;;7.35;;
35150;SDS011;55720;51.972;4.624;2023-04-01T02:02:42;27.10;;;6.93;;
35150;SDS011;55720;51.972;4.624;2023-04-01T02:05:10;29.50;;;7.70;;
35150;SDS011;55720;51.972;4.624;2023-04-01T02:08:13;33.15;;;6.82;;
35150;SDS011;55720;51.972;4.624;2023-04-01T02:10:45;12.13;;;5.18;;
35150;SDS011;55720;51.972;4.624;2023-04-01T02:13:22;32.63;;;7.45;;
35150;SDS011;55720;51.972;4.624;2023-04-01T02:15:56;22.27;;;7.05;;
35150;SDS011;55720;51.972;4.624;2023-04-01T02:18:27;24.85;;;7.32;;
35150;SDS011;55720;51.972;4.624;2023-04-01T02:20:55;30.20;;;7.70;;
35150;SDS011;55720;51.972;4.624;2023-04-01T02:23:24;29.47;;;7.57;;
35150;SDS011;55720;51.972;4.624;2023-04-01T02:25:50;21.85;;;7.00;;
35150;SDS011;55720;51.972;4.624;2023-04-01T02:28:16;27.55;;;8.82;;
35150;SDS011;55720;51.972;4.624;2023-04-01T02:30:45;37.35;;;9.20;;
35150;SDS011;55720;51.972;4.624;2023-04-01T02:33:13;30.52;;;8.80;;
35150;SDS011;55720;51.972;4.624;2023-04-01T02:35:38;25.95;;;9.30;;
35150;SDS011;55720;51.972;4.624;2023-04-01T02:38:04;35.78;;;10.23;;
35150;SDS011;55720;51.972;4.624;2023-04-01T02:40:40;25.52;;;8.90;;
35150;SDS011;55720;51.972;4.624;2023-04-01T02:43:07;27.58;;;9.10;;
35150;SDS011;55720;51.972;4.624;2023-04-01T02:45:32;29.48;;;9.10;;
35150;SDS011;55720;51.972;4.624;2023-04-01T02:47:58;31.92;;;8.65;;
35150;SDS011;55720;51.972;4.624;2023-04-01T02:50:23;33.88;;;9.32;;
35150;SDS011;55720;51.972;4.624;2023-04-01T02:52:48;30.55;;;9.18;;
35150;SDS011;55720;51.972;4.624;2023-04-01T02:55:14;24.35;;;8.70;;
35150;SDS011;55720;51.972;4.624;2023-04-01T02:57:39;29.13;;;9.52;;
35150;SDS011;55720;51.972;4.624;2023-04-01T03:00:05;38.28;;;10.52;;
35150;SDS011;55720;51.972;4.624;2023-04-01T03:02:36;35.10;;;10.35;;
35150;SDS011;55720;51.972;4.624;2023-04-01T03:05:02;31.48;;;11.35;;
35150;SDS011;55720;51.972;4.624;2023-04-01T03:07:28;46.05;;;12.57;;
35150;SDS011;55720;51.972;4.624;2023-04-01T03:09:53;29.98;;;11.90;;
35150;SDS011;55720;51.972;4.624;2023-04-01T03:12:18;42.25;;;13.27;;
35150;SDS011;55720;51.972;4.624;2023-04-01T03:14:44;45.47;;;13.80;;
35150;SDS011;55720;51.972;4.624;2023-04-01T03:17:09;41.13;;;14.13;;
35150;SDS011;55720;51.972;4.624;2023-04-01T03:19:34;47.53;;;14.30;;
35150;SDS011;55720;51.972;4.624;2023-04-01T03:22:00;45.15;;;16.30;;
35150;SDS011;55720;51.972;4.624;2023-04-01T03:24:25;53.63;;;16.00;;
35150;SDS011;55720;51.972;4.624;2023-04-01T03:26:51;49.42;;;16.58;;
35150;SDS011;55720;51.972;4.624;2023-04-01T03:29:16;56.15;;;18.20;;
35150;SDS011;55720;51.972;4.624;2023-04-01T03:31:41;50.40;;;15.50;;
35150;SDS011;55720;51.972;4.624;2023-04-01T03:34:07;60.03;;;17.77;;
35150;SDS011;55720;51.972;4.624;2023-04-01T03:36:32;56.45;;;18.75;;
35150;SDS011;55720;51.972;4.624;2023-04-01T03:38:58;54.35;;;17.25;;
35150;SDS011;55720;51.972;4.624;2023-04-01T03:41:23;60.22;;;17.05;;
35150;SDS011;55720;51.972;4.624;2023-04-01T03:43:48;58.35;;;16.50;;
35150;SDS011;55720;51.972;4.624;2023-04-01T03:46:18;54.28;;;16.33;;
35150;SDS011;55720;51.972;4.624;2023-04-01T03:48:43;34.83;;;10.67;;
35150;SDS011;55720;51.972;4.624;2023-04-01T03:51:09;50.67;;;14.50;;
35150;SDS011;55720;51.972;4.624;2023-04-01T03:53:34;49.72;;;13.70;;
35150;SDS011;55720;51.972;4.624;2023-04-01T03:56:03;50.13;;;13.15;;
35150;SDS011;55720;51.972;4.624;2023-04-01T03:58:29;45.85;;;14.35;;
35150;SDS011;55720;51.972;4.624;2023-04-01T04:00:55;54.28;;;14.30;;
35150;SDS011;55720;51.972;4.624;2023-04-01T04:03:20;44.33;;;13.45;;
35150;SDS011;55720;51.972;4.624;2023-04-01T04:05:46;43.38;;;13.40;;
35150;SDS011;55720;51.972;4.624;2023-04-01T04:08:13;51.25;;;13.48;;
35150;SDS011;55720;51.972;4.624;2023-04-01T04:10:38;51.38;;;13.77;;
35150;SDS011;55720;51.972;4.624;2023-04-01T04:13:04;47.90;;;13.50;;
35150;SDS011;55720;51.972;4.624;2023-04-01T04:15:30;49.92;;;13.88;;
35150;SDS011;55720;51.972;4.624;2023-04-01T04:17:55;52.00;;;13.57;;
35150;SDS011;55720;51.972;4.624;2023-04-01T04:20:20;53.00;;;13.75;;
35150;SDS011;55720;51.972;4.624;2023-04-01T04:22:46;50.05;;;13.25;;
35150;SDS011;55720;51.972;4.624;2023-04-01T04:25:11;56.85;;;14.32;;
35150;SDS011;55720;51.972;4.624;2023-04-01T04:27:36;52.75;;;14.20;;
35150;SDS011;55720;51.972;4.624;2023-04-01T04:30:03;57.45;;;14.15;;
35150;SDS011;55720;51.972;4.624;2023-04-01T04:32:30;64.60;;;15.13;;
35150;SDS011;55720;51.972;4.624;2023-04-01T04:34:55;60.65;;;15.55;;
35150;SDS011;55720;51.972;4.624;2023-04-01T04:37:21;69.18;;;15.52;;
35150;SDS011;55720;51.972;4.624;2023-04-01T04:39:46;65.22;;;16.15;;
35150;SDS011;55720;51.972;4.624;2023-04-01T04:42:11;68.38;;;16.13;;
35150;SDS011;55720;51.972;4.624;2023-04-01T04:44:40;59.95;;;16.15;;
35150;SDS011;55720;51.972;4.624;2023-04-01T04:47:05;64.07;;;17.25;;
35150;SDS011;55720;51.972;4.624;2023-04-01T04:49:30;58.78;;;15.85;;
35150;SDS011;55720;51.972;4.624;2023-04-01T04:51:56;57.42;;;16.00;;
35150;SDS011;55720;51.972;4.624;2023-04-01T04:54:21;52.65;;;16.13;;
35150;SDS011;55720;51.972;4.624;2023-04-01T04:56:47;59.78;;;15.55;;
35150;SDS011;55720;51.972;4.624;2023-04-01T04:59:12;56.35;;;17.23;;
35150;SDS011;55720;51.972;4.624;2023-04-01T05:01:37;53.67;;;16.98;;
35150;SDS011;55720;51.972;4.624;2023-04-01T05:04:03;63.35;;;18.60;;
35150;SDS011;55720;51.972;4.624;2023-04-01T05:06:29;59.92;;;18.50;;
35150;SDS011;55720;51.972;4.624;2023-04-01T05:08:55;54.30;;;18.52;;
35150;SDS011;55720;51.972;4.624;2023-04-01T05:11:21;61.15;;;18.70;;
35150;SDS011;55720;51.972;4.624;2023-04-01T05:13:47;63.75;;;19.80;;
35150;SDS011;55720;51.972;4.624;2023-04-01T05:16:14;58.35;;;18.50;;
35150;SDS011;55720;51.972;4.624;2023-04-01T05:18:41;62.35;;;18.67;;
35150;SDS011;55720;51.972;4.624;2023-04-01T05:21:07;61.45;;;19.13;;
35150;SDS011;55720;51.972;4.624;2023-04-01T05:23:34;60.38;;;18.60;;
35150;SDS011;55720;51.972;4.624;2023-04-01T05:26:06;70.15;;;19.00;;
35150;SDS011;55720;51.972;4.624;2023-04-01T05:28:34;60.80;;;18.17;;
35150;SDS011;55720;51.972;4.624;2023-04-01T05:30:59;51.03;;;16.08;;
35150;SDS011;55720;51.972;4.624;2023-04-01T05:33:26;56.03;;;17.05;;
35150;SDS011;55720;51.972;4.624;2023-04-01T05:35:52;53.25;;;15.93;;
35150;SDS011;55720;51.972;4.624;2023-04-01T05:38:18;53.25;;;15.98;;
35150;SDS011;55720;51.972;4.624;2023-04-01T05:40:43;59.88;;;15.88;;
35150;SDS011;55720;51.972;4.624;2023-04-01T05:43:09;53.20;;;15.75;;
35150;SDS011;55720;51.972;4.624;2023-04-01T05:45:35;60.30;;;16.60;;
35150;SDS011;55720;51.972;4.624;2023-04-01T05:48:00;64.10;;;17.27;;
35150;SDS011;55720;51.972;4.624;2023-04-01T05:50:26;60.15;;;16.33;;
35150;SDS011;55720;51.972;4.624;2023-04-01T05:52:51;54.13;;;15.82;;
35150;SDS011;55720;51.972;4.624;2023-04-01T05:55:17;57.78;;;16.10;;
35150;SDS011;55720;51.972;4.624;2023-04-01T05:57:44;52.47;;;14.80;;
35150;SDS011;55720;51.972;4.624;2023-04-01T06:00:11;53.58;;;15.18;;
35150;SDS011;55720;51.972;4.624;2023-04-01T06:02:37;51.10;;;15.43;;
35150;SDS011;55720;51.972;4.624;2023-04-01T06:05:10;61.95;;;17.00;;
35150;SDS011;55720;51.972;4.624;2023-04-01T06:07:37;59.25;;;17.20;;
35150;SDS011;55720;51.972;4.624;2023-04-01T06:10:05;56.17;;;17.30;;
35150;SDS011;55720;51.972;4.624;2023-04-01T06:15:40;48.47;;;15.95;;
35150;SDS011;55720;51.972;4.624;2023-04-01T06:21:01;42.15;;;15.90;;
35150;SDS011;55720;51.972;4.624;2023-04-01T06:23:35;48.53;;;16.70;;
35150;SDS011;55720;51.972;4.624;2023-04-01T06:37:14;50.08;;;18.10;;
35150;SDS011;55720;51.972;4.624;2023-04-01T06:54:37;39.03;;;15.20;;
35150;SDS011;55720;51.972;4.624;2023-04-01T06:57:41;43.20;;;16.27;;
35150;SDS011;55720;51.972;4.624;2023-04-01T06:59:57;50.80;;;17.65;;
35150;SDS011;55720;51.972;4.624;2023-04-01T07:02:37;44.75;;;18.02;;
35150;SDS011;55720;51.972;4.624;2023-04-01T07:05:07;48.72;;;15.55;;
35150;SDS011;55720;51.972;4.624;2023-04-01T07:07:41;44.85;;;16.33;;
35150;SDS011;55720;51.972;4.624;2023-04-01T07:10:14;48.00;;;15.65;;
35150;SDS011;55720;51.972;4.624;2023-04-01T07:12:48;39.30;;;13.63;;
35150;SDS011;55720;51.972;4.624;2023-04-01T07:15:21;43.25;;;15.10;;
35150;SDS011;55720;51.972;4.624;2023-04-01T07:17:52;35.35;;;14.23;;
35150;SDS011;55720;51.972;4.624;2023-04-01T07:20:44;34.47;;;14.05;;
35150;SDS011;55720;51.972;4.624;2023-04-01T07:23:17;41.63;;;14.07;;
35150;SDS011;55720;51.972;4.624;2023-04-01T07:25:51;38.72;;;14.32;;
35150;SDS011;55720;51.972;4.624;2023-04-01T07:28:19;32.53;;;13.65;;
35150;SDS011;55720;51.972;4.624;2023-04-01T07:36:03;30.65;;;12.77;;
35150;SDS011;55720;51.972;4.624;2023-04-01T07:41:15;24.48;;;10.00;;
35150;SDS011;55720;51.972;4.624;2023-04-01T07:44:27;32.25;;;11.80;;
35150;SDS011;55720;51.972;4.624;2023-04-01T07:47:21;23.92;;;10.48;;
35150;SDS011;55720;51.972;4.624;2023-04-01T07:52:47;22.13;;;10.18;;
35150;SDS011;55720;51.972;4.624;2023-04-01T08:01:09;18.65;;;9.23;;
35150;SDS011;55720;51.972;4.624;2023-04-01T08:09:44;24.65;;;10.65;;
35150;SDS011;55720;51.972;4.624;2023-04-01T08:15:27;25.50;;;10.52;;
35150;SDS011;55720;51.972;4.624;2023-04-01T08:18:05;24.25;;;10.05;;
35150;SDS011;55720;51.972;4.624;2023-04-01T08:20:59;31.30;;;11.75;;
35150;SDS011;55720;51.972;4.624;2023-04-01T08:23:28;30.23;;;10.98;;
35150;SDS011;55720;51.972;4.624;2023-04-01T08:26:16;29.95;;;11.50;;
35150;SDS011;55720;51.972;4.624;2023-04-01T08:31:33;31.75;;;11.38;;
35150;SDS011;55720;51.972;4.624;2023-04-01T08:34:04;31.92;;;11.38;;
35150;SDS011;55720;51.972;4.624;2023-04-01T08:36:41;32.92;;;11.45;;
35150;SDS011;55720;51.972;4.624;2023-04-01T08:53:43;28.42;;;10.55;;
35150;SDS011;55720;51.972;4.624;2023-04-01T09:04:39;30.38;;;10.10;;
35150;SDS011;55720;51.972;4.624;2023-04-01T09:12:59;29.55;;;10.00;;
35150;SDS011;55720;51.972;4.624;2023-04-01T09:15:59;30.52;;;9.75;;
35150;SDS011;55720;51.972;4.624;2023-04-01T09:21:22;36.15;;;11.43;;
35150;SDS011;55720;51.972;4.624;2023-04-01T09:29:27;35.72;;;11.63;;
35150;SDS011;55720;51.972;4.624;2023-04-01T09:43:25;32.17;;;11.15;;
35150;SDS011;55720;51.972;4.624;2023-04-01T09:48:40;31.15;;;10.38;;
35150;SDS011;55720;51.972;4.624;2023-04-01T10:19:15;12.48;;;6.68;;
35150;SDS011;55720;51.972;4.624;2023-04-01T11:04:03;25.40;;;8.45;;
35150;SDS011;55720;51.972;4.624;2023-04-01T11:15:14;20.23;;;7.63;;
35150;SDS011;55720;51.972;4.624;2023-04-01T11:23:29;19.30;;;6.55;;
35150;SDS011;55720;51.972;4.624;2023-04-01T11:26:17;23.52;;;7.72;;
35150;SDS011;55720;51.972;4.624;2023-04-01T11:29:22;18.27;;;7.78;;
35150;SDS011;55720;51.972;4.624;2023-04-01T11:35:12;19.10;;;7.60;;
35150;SDS011;55720;51.972;4.624;2023-04-01T11:40:31;21.00;;;8.15;;
35150;SDS011;55720;51.972;4.624;2023-04-01T11:49:14;24.13;;;8.55;;
35150;SDS011;55720;51.972;4.624;2023-04-01T12:08:27;14.82;;;7.47;;
35150;SDS011;55720;51.972;4.624;2023-04-01T12:33:10;23.92;;;8.55;;
35150;SDS011;55720;51.972;4.624;2023-04-01T12:44:33;9.85;;;5.95;;
35150;SDS011;55720;51.972;4.624;2023-04-01T12:50:00;13.63;;;6.40;;
35150;SDS011;55720;51.972;4.624;2023-04-01T12:55:43;16.48;;;7.20;;
35150;SDS011;55720;51.972;4.624;2023-04-01T13:06:20;21.05;;;8.60;;
35150;SDS011;55720;51.972;4.624;2023-04-01T13:28:59;18.25;;;6.43;;
35150;SDS011;55720;51.972;4.624;2023-04-01T13:40:13;19.73;;;8.85;;
35150;SDS011;55720;51.972;4.624;2023-04-01T13:45:14;26.73;;;9.63;;
35150;SDS011;55720;51.972;4.624;2023-04-01T13:48:00;23.02;;;9.52;;
35150;SDS011;55720;51.972;4.624;2023-04-01T14:02:08;20.35;;;8.07;;
35150;SDS011;55720;51.972;4.624;2023-04-01T14:13:21;19.05;;;8.75;;
35150;SDS011;55720;51.972;4.624;2023-04-01T14:21:29;26.90;;;8.57;;
35150;SDS011;55720;51.972;4.624;2023-04-01T14:27:04;17.43;;;8.67;;
35150;SDS011;55720;51.972;4.624;2023-04-01T14:35:18;19.52;;;7.80;;
35150;SDS011;55720;51.972;4.624;2023-04-01T14:51:40;20.17;;;6.72;;
35150;SDS011;55720;51.972;4.624;2023-04-01T14:57:15;15.95;;;6.80;;
35150;SDS011;55720;51.972;4.624;2023-04-01T15:00:33;20.13;;;6.47;;
35150;SDS011;55720;51.972;4.624;2023-04-01T15:05:27;15.30;;;6.68;;
35150;SDS011;55720;51.972;4.624;2023-04-01T15:10:39;15.80;;;6.40;;
35150;SDS011;55720;51.972;4.624;2023-04-01T15:16:09;12.48;;;6.10;;
35150;SDS011;55720;51.972;4.624;2023-04-01T15:21:48;15.53;;;6.30;;
35150;SDS011;55720;51.972;4.624;2023-04-01T15:24:34;19.15;;;7.78;;
35150;SDS011;55720;51.972;4.624;2023-04-01T15:29:47;16.00;;;6.30;;
35150;SDS011;55720;51.972;4.624;2023-04-01T15:41:10;16.00;;;7.40;;
35150;SDS011;55720;51.972;4.624;2023-04-01T15:43:44;11.38;;;5.88;;
35150;SDS011;55720;51.972;4.624;2023-04-01T16:00:02;12.15;;;8.15;;
35150;SDS011;55720;51.972;4.624;2023-04-01T16:02:43;15.57;;;9.52;;
35150;SDS011;55720;51.972;4.624;2023-04-01T16:05:48;17.42;;;9.93;;
35150;SDS011;55720;51.972;4.624;2023-04-01T16:08:21;14.73;;;10.40;;
35150;SDS011;55720;51.972;4.624;2023-04-01T16:16:50;18.70;;;11.00;;
35150;SDS011;55720;51.972;4.624;2023-04-01T16:44:54;12.77;;;9.65;;
35150;SDS011;55720;51.972;4.624;2023-04-01T16:47:23;11.45;;;8.57;;
35150;SDS011;55720;51.972;4.624;2023-04-01T16:50:00;13.13;;;8.82;;
35150;SDS011;55720;51.972;4.624;2023-04-01T16:55:24;11.30;;;7.80;;
35150;SDS011;55720;51.972;4.624;2023-04-01T16:58:00;10.43;;;8.05;;
35150;SDS011;55720;51.972;4.624;2023-04-01T17:00:27;13.35;;;9.05;;
35150;SDS011;55720;51.972;4.624;2023-04-01T17:21:49;15.18;;;9.48;;
35150;SDS011;55720;51.972;4.624;2023-04-01T17:29:55;11.40;;;8.63;;
35150;SDS011;55720;51.972;4.624;2023-04-01T17:42:49;12.80;;;7.95;;
35150;SDS011;55720;51.972;4.624;2023-04-01T17:50:44;8.40;;;7.05;;
35150;SDS011;55720;51.972;4.624;2023-04-01T17:53:39;10.75;;;6.88;;
35150;SDS011;55720;51.972;4.624;2023-04-01T17:59:37;8.73;;;7.50;;
35150;SDS011;55720;51.972;4.624;2023-04-01T18:12:56;5.68;;;4.53;;
35150;SDS011;55720;51.972;4.624;2023-04-01T18:18:17;5.05;;;4.65;;
35150;SDS011;55720;51.972;4.624;2023-04-01T18:21:17;4.47;;;4.07;;
35150;SDS011;55720;51.972;4.624;2023-04-01T18:24:00;4.78;;;4.38;;
35150;SDS011;55720;51.972;4.624;2023-04-01T18:29:56;7.15;;;6.13;;
35150;SDS011;55720;51.972;4.624;2023-04-01T18:32:37;6.80;;;6.20;;
35150;SDS011;55720;51.972;4.624;2023-04-01T18:38:16;6.57;;;5.97;;
35150;SDS011;55720;51.972;4.624;2023-04-01T18:41:07;7.90;;;6.22;;
35150;SDS011;55720;51.972;4.624;2023-04-01T18:43:39;6.93;;;6.00;;
35150;SDS011;55720;51.972;4.624;2023-04-01T18:49:13;10.82;;;7.40;;
35150;SDS011;55720;51.972;4.624;2023-04-01T18:51:55;10.38;;;8.18;;
35150;SDS011;55720;51.972;4.624;2023-04-01T18:57:25;8.50;;;7.32;;
35150;SDS011;55720;51.972;4.624;2023-04-01T19:00:20;8.65;;;7.80;;
35150;SDS011;55720;51.972;4.624;2023-04-01T19:03:02;9.70;;;8.70;;
35150;SDS011;55720;51.972;4.624;2023-04-01T19:05:36;13.23;;;9.32;;
35150;SDS011;55720;51.972;4.624;2023-04-01T19:13:27;11.48;;;8.73;;
35150;SDS011;55720;51.972;4.624;2023-04-01T19:21:45;10.63;;;9.02;;
35150;SDS011;55720;51.972;4.624;2023-04-01T19:43:18;10.38;;;8.13;;
35150;SDS011;55720;51.972;4.624;2023-04-01T19:54:30;7.93;;;7.13;;
35150;SDS011;55720;51.972;4.624;2023-04-01T20:04:56;7.40;;;6.13;;
35150;SDS011;55720;51.972;4.624;2023-04-01T20:07:29;9.60;;;7.72;;
35150;SDS011;55720;51.972;4.624;2023-04-01T20:15:59;7.72;;;6.93;;
35150;SDS011;55720;51.972;4.624;2023-04-01T20:18:38;7.28;;;6.55;;
35150;SDS011;55720;51.972;4.624;2023-04-01T20:21:28;8.90;;;7.20;;
35150;SDS011;55720;51.972;4.624;2023-04-01T20:27:29;11.23;;;7.97;;
35150;SDS011;55720;51.972;4.624;2023-04-01T20:38:52;6.18;;;5.57;;
35150;SDS011;55720;51.972;4.624;2023-04-01T20:40:52;7.25;;;6.32;;
35150;SDS011;55720;51.972;4.624;2023-04-01T20:49:00;8.18;;;6.55;;
35150;SDS011;55720;51.972;4.624;2023-04-01T20:51:39;8.32;;;6.53;;
35150;SDS011;55720;51.972;4.624;2023-04-01T20:57:11;7.72;;;6.28;;
35150;SDS011;55720;51.972;4.624;2023-04-01T21:07:48;7.88;;;7.07;;
35150;SDS011;55720;51.972;4.624;2023-04-01T21:15:48;11.95;;;7.18;;
35150;SDS011;55720;51.972;4.624;2023-04-01T21:18:38;9.55;;;7.13;;
35150;SDS011;55720;51.972;4.624;2023-04-01T21:21:24;11.88;;;7.35;;
35150;SDS011;55720;51.972;4.624;2023-04-01T21:38:27;9.48;;;7.63;;
35150;SDS011;55720;51.972;4.624;2023-04-01T21:52:25;10.23;;;7.13;;
35150;SDS011;55720;51.972;4.624;2023-04-01T22:11:52;13.48;;;7.70;;
35150;SDS011;55720;51.972;4.624;2023-04-01T22:23:05;10.23;;;7.32;;
35150;SDS011;55720;51.972;4.624;2023-04-01T22:28:08;11.65;;;7.40;;
35150;SDS011;55720;51.972;4.624;2023-04-01T22:30:47;9.23;;;7.03;;
35150;SDS011;55720;51.972;4.624;2023-04-01T22:43:41;10.15;;;8.32;;
35150;SDS011;55720;51.972;4.624;2023-04-01T22:48:51;12.98;;;8.32;;
35150;SDS011;55720;51.972;4.624;2023-04-01T22:51:43;12.88;;;8.00;;
35150;SDS011;55720;51.972;4.624;2023-04-01T22:54:36;8.48;;;7.40;;
35150;SDS011;55720;51.972;4.624;2023-04-01T22:57:10;11.52;;;7.97;;
35150;SDS011;55720;51.972;4.624;2023-04-01T23:02:31;10.80;;;8.43;;
35150;SDS011;55720;51.972;4.624;2023-04-01T23:12:58;10.27;;;7.53;;
35150;SDS011;55720;51.972;4.624;2023-04-01T23:15:26;10.25;;;7.85;;
35150;SDS011;55720;51.972;4.624;2023-04-01T23:17:58;12.82;;;7.60;;
35150;SDS011;55720;51.972;4.624;2023-04-01T23:20:47;8.75;;;7.38;;
35150;SDS011;55720;51.972;4.624;2023-04-01T23:23:30;10.02;;;7.45;;
35150;SDS011;55720;51.972;4.624;2023-04-01T23:26:10;13.93;;;7.65;;
35150;SDS011;55720;51.972;4.624;2023-04-01T23:28:42;13.15;;;8.20;;
35150;SDS011;55720;51.972;4.624;2023-04-01T23:33:56;11.55;;;7.70;;
35150;SDS011;55720;51.972;4.624;2023-04-01T23:36:24;9.82;;;7.90;;
35150;SDS011;55720;51.972;4.624;2023-04-01T23:38:50;10.93;;;8.30;;
35150;SDS011;55720;51.972;4.624;2023-04-01T23:41:20;8.40;;;7.60;;
35150;SDS011;55720;51.972;4.624;2023-04-01T23:44:00;12.52;;;8.05;;
35150;SDS011;55720;51.972;4.624;2023-04-01T23:46:28;10.57;;;7.28;;
35150;SDS011;55720;51.972;4.624;2023-04-01T23:48:56;12.45;;;7.70;;
35150;SDS011;55720;51.972;4.624;2023-04-01T23:51:23;10.52;;;7.55;;
35150;SDS011;55720;51.972;4.624;2023-04-01T23:56:38;13.65;;;8.85;;
